sensor_id;sensor_type;location;lat;lon;timestamp;temperature;humidity
73360;DHT22;63092;43.582;19.528;2024-03-08T00:00:06;9.70;99.90
73360;DHT22;63092;43.582;19.528;2024-03-08T00:02:55;9.70;99.90
73360;DHT22;63092;43.582;19.528;2024-03-08T00:05:21;9.60;99.90
73360;DHT22;63092;43.582;19.528;2024-03-08T00:07:47;9.60;99.90
73360;DHT22;63092;43.582;19.528;2024-03-08T00:10:13;9.70;99.90
73360;DHT22;63092;43.582;19.528;2024-03-08T00:12:42;9.60;99.90
73360;DHT22;63092;43.582;19.528;2024-03-08T00:15:11;9.60;99.90
73360;DHT22;63092;43.582;19.528;2024-03-08T00:17:43;9.70;99.90
73360;DHT22;63092;43.582;19.528;2024-03-08T00:20:09;9.60;99.90
73360;DHT22;63092;43.582;19.528;2024-03-08T00:22:35;9.60;99.90
73360;DHT22;63092;43.582;19.528;2024-03-08T00:25:02;9.60;99.90
73360;DHT22;63092;43.582;19.528;2024-03-08T00:27:28;9.60;99.90
73360;DHT22;63092;43.582;19.528;2024-03-08T00:29:56;9.60;99.90
73360;DHT22;63092;43.582;19.528;2024-03-08T00:32:22;9.70;99.90
73360;DHT22;63092;43.582;19.528;2024-03-08T00:34:50;9.70;99.90
73360;DHT22;63092;43.582;19.528;2024-03-08T00:37:22;9.70;99.90
73360;DHT22;63092;43.582;19.528;2024-03-08T00:39:49;9.70;99.90
73360;DHT22;63092;43.582;19.528;2024-03-08T00:42:16;9.70;99.90
73360;DHT22;63092;43.582;19.528;2024-03-08T00:44:42;9.70;99.90
73360;DHT22;63092;43.582;19.528;2024-03-08T00:47:08;9.70;99.90
73360;DHT22;63092;43.582;19.528;2024-03-08T00:49:33;9.70;99.90
73360;DHT22;63092;43.582;19.528;2024-03-08T00:51:59;9.70;99.90
73360;DHT22;63092;43.582;19.528;2024-03-08T00:54:25;9.60;99.90
73360;DHT22;63092;43.582;19.528;2024-03-08T00:56:51;9.60;99.90
73360;DHT22;63092;43.582;19.528;2024-03-08T00:59:16;9.60;99.90
73360;DHT22;63092;43.582;19.528;2024-03-08T01:01:42;9.60;99.90
73360;DHT22;63092;43.582;19.528;2024-03-08T01:04:10;9.60;99.90
73360;DHT22;63092;43.582;19.528;2024-03-08T01:06:35;9.60;99.90
73360;DHT22;63092;43.582;19.528;2024-03-08T01:09:01;9.60;99.90
73360;DHT22;63092;43.582;19.528;2024-03-08T01:11:27;9.60;99.90
73360;DHT22;63092;43.582;19.528;2024-03-08T01:13:53;9.60;99.90
73360;DHT22;63092;43.582;19.528;2024-03-08T01:16:19;9.60;99.90
73360;DHT22;63092;43.582;19.528;2024-03-08T01:18:48;9.40;99.90
73360;DHT22;63092;43.582;19.528;2024-03-08T01:21:14;9.50;99.90
73360;DHT22;63092;43.582;19.528;2024-03-08T01:23:39;9.50;99.90
73360;DHT22;63092;43.582;19.528;2024-03-08T01:26:05;9.30;99.90
73360;DHT22;63092;43.582;19.528;2024-03-08T01:28:31;9.10;99.90
73360;DHT22;63092;43.582;19.528;2024-03-08T01:30:59;9.10;99.90
73360;DHT22;63092;43.582;19.528;2024-03-08T01:33:26;9.10;99.90
73360;DHT22;63092;43.582;19.528;2024-03-08T01:35:55;9.10;99.90
73360;DHT22;63092;43.582;19.528;2024-03-08T01:38:22;9.00;99.90
73360;DHT22;63092;43.582;19.528;2024-03-08T01:40:49;9.10;99.90
73360;DHT22;63092;43.582;19.528;2024-03-08T01:45:44;9.00;99.90
73360;DHT22;63092;43.582;19.528;2024-03-08T01:48:10;9.00;99.90
73360;DHT22;63092;43.582;19.528;2024-03-08T01:50:36;9.00;99.90
73360;DHT22;63092;43.582;19.528;2024-03-08T01:53:03;9.00;99.90
73360;DHT22;63092;43.582;19.528;2024-03-08T01:55:29;9.00;99.90
73360;DHT22;63092;43.582;19.528;2024-03-08T01:57:55;9.10;99.90
73360;DHT22;63092;43.582;19.528;2024-03-08T02:00:21;9.10;99.90
73360;DHT22;63092;43.582;19.528;2024-03-08T02:02:47;9.20;99.90
73360;DHT22;63092;43.582;19.528;2024-03-08T02:05:15;9.20;99.90
73360;DHT22;63092;43.582;19.528;2024-03-08T02:07:41;9.20;99.90
73360;DHT22;63092;43.582;19.528;2024-03-08T02:10:10;9.20;99.90
73360;DHT22;63092;43.582;19.528;2024-03-08T02:12:38;9.20;99.90
73360;DHT22;63092;43.582;19.528;2024-03-08T02:15:04;9.20;99.90
73360;DHT22;63092;43.582;19.528;2024-03-08T02:17:32;9.30;99.90
73360;DHT22;63092;43.582;19.528;2024-03-08T02:19:59;9.30;99.90
73360;DHT22;63092;43.582;19.528;2024-03-08T02:22:30;9.20;99.90
73360;DHT22;63092;43.582;19.528;2024-03-08T02:24:58;9.20;99.90
73360;DHT22;63092;43.582;19.528;2024-03-08T02:27:27;9.20;99.90
73360;DHT22;63092;43.582;19.528;2024-03-08T02:29:57;9.10;99.90
73360;DHT22;63092;43.582;19.528;2024-03-08T02:32:23;9.20;99.90
73360;DHT22;63092;43.582;19.528;2024-03-08T02:34:49;9.10;99.90
73360;DHT22;63092;43.582;19.528;2024-03-08T02:37:17;8.90;99.90
73360;DHT22;63092;43.582;19.528;2024-03-08T02:39:43;8.90;99.90
73360;DHT22;63092;43.582;19.528;2024-03-08T02:42:09;9.00;99.90
73360;DHT22;63092;43.582;19.528;2024-03-08T02:44:35;9.00;99.90
73360;DHT22;63092;43.582;19.528;2024-03-08T02:47:01;9.10;99.90
73360;DHT22;63092;43.582;19.528;2024-03-08T02:49:27;9.10;99.90
73360;DHT22;63092;43.582;19.528;2024-03-08T02:51:53;9.00;99.90
73360;DHT22;63092;43.582;19.528;2024-03-08T02:54:19;8.90;99.90
73360;DHT22;63092;43.582;19.528;2024-03-08T02:56:46;8.90;99.90
73360;DHT22;63092;43.582;19.528;2024-03-08T02:59:12;8.90;99.90
73360;DHT22;63092;43.582;19.528;2024-03-08T03:01:38;8.80;99.90
73360;DHT22;63092;43.582;19.528;2024-03-08T03:04:05;8.80;99.90
73360;DHT22;63092;43.582;19.528;2024-03-08T03:06:30;8.80;99.90
73360;DHT22;63092;43.582;19.528;2024-03-08T03:08:56;8.80;99.90
73360;DHT22;63092;43.582;19.528;2024-03-08T03:11:23;8.80;99.90
73360;DHT22;63092;43.582;19.528;2024-03-08T03:13:49;8.70;99.90
73360;DHT22;63092;43.582;19.528;2024-03-08T03:16:18;8.70;99.90
73360;DHT22;63092;43.582;19.528;2024-03-08T03:18:48;8.70;99.90
73360;DHT22;63092;43.582;19.528;2024-03-08T03:21:14;8.70;99.90
73360;DHT22;63092;43.582;19.528;2024-03-08T03:23:40;8.70;99.90
73360;DHT22;63092;43.582;19.528;2024-03-08T03:26:10;8.70;99.90
73360;DHT22;63092;43.582;19.528;2024-03-08T03:28:37;8.70;99.90
73360;DHT22;63092;43.582;19.528;2024-03-08T03:31:07;8.70;99.90
73360;DHT22;63092;43.582;19.528;2024-03-08T03:33:35;8.70;99.90
73360;DHT22;63092;43.582;19.528;2024-03-08T03:36:03;8.70;99.90
73360;DHT22;63092;43.582;19.528;2024-03-08T03:38:30;8.70;99.90
73360;DHT22;63092;43.582;19.528;2024-03-08T03:40:56;8.60;99.90
73360;DHT22;63092;43.582;19.528;2024-03-08T03:43:29;8.50;99.90
73360;DHT22;63092;43.582;19.528;2024-03-08T03:45:55;8.50;99.90
73360;DHT22;63092;43.582;19.528;2024-03-08T03:48:21;8.50;99.90
73360;DHT22;63092;43.582;19.528;2024-03-08T03:50:46;8.50;99.90
73360;DHT22;63092;43.582;19.528;2024-03-08T03:53:12;8.60;99.90
73360;DHT22;63092;43.582;19.528;2024-03-08T03:55:38;8.50;99.90
73360;DHT22;63092;43.582;19.528;2024-03-08T03:58:04;8.60;99.90
73360;DHT22;63092;43.582;19.528;2024-03-08T04:00:30;8.60;99.90
73360;DHT22;63092;43.582;19.528;2024-03-08T04:02:56;8.60;99.90
73360;DHT22;63092;43.582;19.528;2024-03-08T04:05:24;8.70;99.90
73360;DHT22;63092;43.582;19.528;2024-03-08T04:07:50;8.70;99.90
73360;DHT22;63092;43.582;19.528;2024-03-08T04:10:16;8.70;99.90
73360;DHT22;63092;43.582;19.528;2024-03-08T04:12:41;8.80;99.90
73360;DHT22;63092;43.582;19.528;2024-03-08T04:15:08;8.80;99.90
73360;DHT22;63092;43.582;19.528;2024-03-08T04:17:34;8.90;99.90
73360;DHT22;63092;43.582;19.528;2024-03-08T04:20:05;8.90;99.90
73360;DHT22;63092;43.582;19.528;2024-03-08T04:22:36;8.90;99.90
73360;DHT22;63092;43.582;19.528;2024-03-08T04:25:03;8.90;99.90
73360;DHT22;63092;43.582;19.528;2024-03-08T04:27:29;8.90;99.90
73360;DHT22;63092;43.582;19.528;2024-03-08T04:29:54;9.00;99.90
73360;DHT22;63092;43.582;19.528;2024-03-08T04:32:20;9.00;99.90
73360;DHT22;63092;43.582;19.528;2024-03-08T04:34:46;9.00;99.90
73360;DHT22;63092;43.582;19.528;2024-03-08T04:37:12;9.00;99.90
73360;DHT22;63092;43.582;19.528;2024-03-08T04:39:39;9.00;99.90
73360;DHT22;63092;43.582;19.528;2024-03-08T04:42:05;9.00;99.90
73360;DHT22;63092;43.582;19.528;2024-03-08T04:44:36;9.00;99.90
73360;DHT22;63092;43.582;19.528;2024-03-08T04:47:03;9.00;99.90
73360;DHT22;63092;43.582;19.528;2024-03-08T04:49:34;9.00;99.90
73360;DHT22;63092;43.582;19.528;2024-03-08T04:52:03;9.00;99.90
73360;DHT22;63092;43.582;19.528;2024-03-08T04:54:29;9.00;99.90
73360;DHT22;63092;43.582;19.528;2024-03-08T04:56:55;9.00;99.90
73360;DHT22;63092;43.582;19.528;2024-03-08T04:59:21;9.10;99.90
73360;DHT22;63092;43.582;19.528;2024-03-08T05:01:47;9.00;99.90
73360;DHT22;63092;43.582;19.528;2024-03-08T05:04:13;9.00;99.90
73360;DHT22;63092;43.582;19.528;2024-03-08T05:06:39;9.00;99.90
73360;DHT22;63092;43.582;19.528;2024-03-08T05:09:05;9.00;99.90
73360;DHT22;63092;43.582;19.528;2024-03-08T05:11:39;9.00;99.90
73360;DHT22;63092;43.582;19.528;2024-03-08T05:14:05;9.00;99.90
73360;DHT22;63092;43.582;19.528;2024-03-08T05:16:31;9.00;99.90
73360;DHT22;63092;43.582;19.528;2024-03-08T05:18:57;9.00;99.90
73360;DHT22;63092;43.582;19.528;2024-03-08T05:21:22;9.00;99.90
73360;DHT22;63092;43.582;19.528;2024-03-08T05:23:49;9.00;99.90
73360;DHT22;63092;43.582;19.528;2024-03-08T05:26:16;9.00;99.90
73360;DHT22;63092;43.582;19.528;2024-03-08T05:28:42;9.00;99.90
73360;DHT22;63092;43.582;19.528;2024-03-08T05:31:08;8.90;99.90
73360;DHT22;63092;43.582;19.528;2024-03-08T05:33:34;9.00;99.90
73360;DHT22;63092;43.582;19.528;2024-03-08T05:36:00;9.00;99.90
73360;DHT22;63092;43.582;19.528;2024-03-08T05:38:28;8.90;99.90
73360;DHT22;63092;43.582;19.528;2024-03-08T05:40:54;8.90;99.90
73360;DHT22;63092;43.582;19.528;2024-03-08T05:43:20;8.90;99.90
73360;DHT22;63092;43.582;19.528;2024-03-08T05:45:46;8.90;99.90
73360;DHT22;63092;43.582;19.528;2024-03-08T05:48:13;8.90;99.90
73360;DHT22;63092;43.582;19.528;2024-03-08T05:50:39;8.90;99.90
73360;DHT22;63092;43.582;19.528;2024-03-08T05:53:04;8.90;99.90
73360;DHT22;63092;43.582;19.528;2024-03-08T05:55:32;8.90;99.90
73360;DHT22;63092;43.582;19.528;2024-03-08T05:58:02;8.90;99.90
73360;DHT22;63092;43.582;19.528;2024-03-08T06:00:28;9.00;99.90
73360;DHT22;63092;43.582;19.528;2024-03-08T06:02:53;9.00;99.90
73360;DHT22;63092;43.582;19.528;2024-03-08T06:05:19;8.90;99.90
73360;DHT22;63092;43.582;19.528;2024-03-08T06:07:45;9.00;99.90
73360;DHT22;63092;43.582;19.528;2024-03-08T06:10:11;9.00;99.90
73360;DHT22;63092;43.582;19.528;2024-03-08T06:12:38;9.00;99.90
73360;DHT22;63092;43.582;19.528;2024-03-08T06:15:07;8.90;99.90
73360;DHT22;63092;43.582;19.528;2024-03-08T06:17:38;8.90;99.90
73360;DHT22;63092;43.582;19.528;2024-03-08T06:20:04;8.90;99.90
73360;DHT22;63092;43.582;19.528;2024-03-08T06:22:38;8.80;99.90
73360;DHT22;63092;43.582;19.528;2024-03-08T06:25:10;8.80;99.90
73360;DHT22;63092;43.582;19.528;2024-03-08T06:27:43;8.80;99.90
73360;DHT22;63092;43.582;19.528;2024-03-08T06:30:10;8.80;99.90
73360;DHT22;63092;43.582;19.528;2024-03-08T06:32:36;8.90;99.90
73360;DHT22;63092;43.582;19.528;2024-03-08T06:35:06;8.80;99.90
73360;DHT22;63092;43.582;19.528;2024-03-08T06:37:33;8.80;99.90
73360;DHT22;63092;43.582;19.528;2024-03-08T06:39:59;8.80;99.90
73360;DHT22;63092;43.582;19.528;2024-03-08T06:42:29;8.90;99.90
73360;DHT22;63092;43.582;19.528;2024-03-08T06:44:59;9.00;99.90
73360;DHT22;63092;43.582;19.528;2024-03-08T06:47:30;9.10;99.90
73360;DHT22;63092;43.582;19.528;2024-03-08T06:49:56;9.20;99.90
73360;DHT22;63092;43.582;19.528;2024-03-08T06:52:21;9.20;99.90
73360;DHT22;63092;43.582;19.528;2024-03-08T06:54:48;9.30;99.90
73360;DHT22;63092;43.582;19.528;2024-03-08T06:57:14;9.30;99.90
73360;DHT22;63092;43.582;19.528;2024-03-08T06:59:42;9.40;99.90
73360;DHT22;63092;43.582;19.528;2024-03-08T07:02:08;9.40;99.90
73360;DHT22;63092;43.582;19.528;2024-03-08T07:04:35;9.50;99.90
73360;DHT22;63092;43.582;19.528;2024-03-08T07:07:04;9.50;99.90
73360;DHT22;63092;43.582;19.528;2024-03-08T07:09:30;9.50;99.90
73360;DHT22;63092;43.582;19.528;2024-03-08T07:11:56;9.60;99.90
73360;DHT22;63092;43.582;19.528;2024-03-08T07:14:22;9.60;99.90
73360;DHT22;63092;43.582;19.528;2024-03-08T07:16:48;9.70;99.90
73360;DHT22;63092;43.582;19.528;2024-03-08T07:19:14;9.70;99.90
73360;DHT22;63092;43.582;19.528;2024-03-08T07:21:41;9.70;99.90
73360;DHT22;63092;43.582;19.528;2024-03-08T07:24:07;9.80;99.90
73360;DHT22;63092;43.582;19.528;2024-03-08T07:26:42;9.80;99.90
73360;DHT22;63092;43.582;19.528;2024-03-08T07:29:08;9.80;99.90
73360;DHT22;63092;43.582;19.528;2024-03-08T07:31:33;9.80;99.90
73360;DHT22;63092;43.582;19.528;2024-03-08T07:34:28;9.80;99.90
73360;DHT22;63092;43.582;19.528;2024-03-08T07:36:57;9.80;99.90
73360;DHT22;63092;43.582;19.528;2024-03-08T07:39:23;9.90;99.90
73360;DHT22;63092;43.582;19.528;2024-03-08T07:41:49;9.90;99.90
73360;DHT22;63092;43.582;19.528;2024-03-08T07:44:18;10.00;99.90
73360;DHT22;63092;43.582;19.528;2024-03-08T07:46:44;10.10;99.90
73360;DHT22;63092;43.582;19.528;2024-03-08T07:49:10;10.20;99.90
73360;DHT22;63092;43.582;19.528;2024-03-08T07:51:38;10.20;99.90
73360;DHT22;63092;43.582;19.528;2024-03-08T07:54:04;10.40;99.90
73360;DHT22;63092;43.582;19.528;2024-03-08T07:56:30;10.40;99.90
73360;DHT22;63092;43.582;19.528;2024-03-08T07:58:56;10.40;99.90
73360;DHT22;63092;43.582;19.528;2024-03-08T08:01:22;10.50;99.90
73360;DHT22;63092;43.582;19.528;2024-03-08T08:03:48;10.60;99.90
73360;DHT22;63092;43.582;19.528;2024-03-08T08:06:16;10.60;99.90
73360;DHT22;63092;43.582;19.528;2024-03-08T08:08:42;10.70;99.90
73360;DHT22;63092;43.582;19.528;2024-03-08T08:11:08;10.80;99.90
73360;DHT22;63092;43.582;19.528;2024-03-08T08:13:35;10.90;99.90
73360;DHT22;63092;43.582;19.528;2024-03-08T08:16:05;10.90;99.90
73360;DHT22;63092;43.582;19.528;2024-03-08T08:18:34;11.00;99.90
73360;DHT22;63092;43.582;19.528;2024-03-08T08:21:02;11.00;99.90
73360;DHT22;63092;43.582;19.528;2024-03-08T08:23:28;11.10;99.90
73360;DHT22;63092;43.582;19.528;2024-03-08T08:25:55;11.10;99.90
73360;DHT22;63092;43.582;19.528;2024-03-08T08:28:21;11.10;98.50
73360;DHT22;63092;43.582;19.528;2024-03-08T08:30:46;11.20;98.60
73360;DHT22;63092;43.582;19.528;2024-03-08T08:33:14;11.10;97.70
73360;DHT22;63092;43.582;19.528;2024-03-08T08:35:40;11.20;98.80
73360;DHT22;63092;43.582;19.528;2024-03-08T08:38:06;11.20;98.40
73360;DHT22;63092;43.582;19.528;2024-03-08T08:40:33;11.20;98.30
73360;DHT22;63092;43.582;19.528;2024-03-08T08:42:59;11.20;99.50
73360;DHT22;63092;43.582;19.528;2024-03-08T08:45:26;11.30;98.00
73360;DHT22;63092;43.582;19.528;2024-03-08T08:47:52;11.10;97.30
73360;DHT22;63092;43.582;19.528;2024-03-08T08:50:19;11.10;98.00
73360;DHT22;63092;43.582;19.528;2024-03-08T08:52:51;11.10;98.70
73360;DHT22;63092;43.582;19.528;2024-03-08T08:55:16;11.10;98.70
73360;DHT22;63092;43.582;19.528;2024-03-08T08:57:46;11.20;98.70
73360;DHT22;63092;43.582;19.528;2024-03-08T09:00:13;11.20;95.80
73360;DHT22;63092;43.582;19.528;2024-03-08T09:02:42;11.30;95.70
73360;DHT22;63092;43.582;19.528;2024-03-08T09:05:08;11.40;95.20
73360;DHT22;63092;43.582;19.528;2024-03-08T09:07:34;11.50;95.30
73360;DHT22;63092;43.582;19.528;2024-03-08T09:10:00;11.60;95.80
73360;DHT22;63092;43.582;19.528;2024-03-08T09:12:26;11.80;96.50
73360;DHT22;63092;43.582;19.528;2024-03-08T09:14:52;11.80;95.10
73360;DHT22;63092;43.582;19.528;2024-03-08T09:17:18;12.00;95.20
73360;DHT22;63092;43.582;19.528;2024-03-08T09:19:48;12.10;95.50
73360;DHT22;63092;43.582;19.528;2024-03-08T09:22:14;12.20;93.70
73360;DHT22;63092;43.582;19.528;2024-03-08T09:24:40;12.20;92.10
73360;DHT22;63092;43.582;19.528;2024-03-08T09:27:06;12.30;91.70
73360;DHT22;63092;43.582;19.528;2024-03-08T09:29:31;12.30;92.70
73360;DHT22;63092;43.582;19.528;2024-03-08T09:31:57;12.30;92.20
73360;DHT22;63092;43.582;19.528;2024-03-08T09:34:23;12.40;90.40
73360;DHT22;63092;43.582;19.528;2024-03-08T09:36:49;12.50;92.20
73360;DHT22;63092;43.582;19.528;2024-03-08T09:39:16;12.50;90.10
73360;DHT22;63092;43.582;19.528;2024-03-08T09:41:46;12.40;90.10
73360;DHT22;63092;43.582;19.528;2024-03-08T09:44:16;12.40;90.30
73360;DHT22;63092;43.582;19.528;2024-03-08T09:46:45;12.40;89.50
73360;DHT22;63092;43.582;19.528;2024-03-08T09:49:13;12.50;90.30
73360;DHT22;63092;43.582;19.528;2024-03-08T09:51:39;12.40;86.70
73360;DHT22;63092;43.582;19.528;2024-03-08T09:54:07;12.30;86.70
73360;DHT22;63092;43.582;19.528;2024-03-08T09:56:35;12.40;85.50
73360;DHT22;63092;43.582;19.528;2024-03-08T09:59:02;12.30;83.80
73360;DHT22;63092;43.582;19.528;2024-03-08T10:01:33;12.30;84.30
73360;DHT22;63092;43.582;19.528;2024-03-08T10:03:59;12.20;85.00
73360;DHT22;63092;43.582;19.528;2024-03-08T10:06:25;12.20;86.50
73360;DHT22;63092;43.582;19.528;2024-03-08T10:08:51;12.20;85.00
73360;DHT22;63092;43.582;19.528;2024-03-08T10:11:21;12.20;84.60
73360;DHT22;63092;43.582;19.528;2024-03-08T10:13:48;12.30;86.20
73360;DHT22;63092;43.582;19.528;2024-03-08T10:16:13;12.30;84.10
73360;DHT22;63092;43.582;19.528;2024-03-08T10:18:39;12.30;83.20
73360;DHT22;63092;43.582;19.528;2024-03-08T10:21:07;12.40;82.60
73360;DHT22;63092;43.582;19.528;2024-03-08T10:23:36;12.50;84.60
73360;DHT22;63092;43.582;19.528;2024-03-08T10:26:20;12.50;83.50
73360;DHT22;63092;43.582;19.528;2024-03-08T10:28:51;12.50;85.20
73360;DHT22;63092;43.582;19.528;2024-03-08T10:31:19;12.60;85.30
73360;DHT22;63092;43.582;19.528;2024-03-08T10:33:45;12.70;82.80
73360;DHT22;63092;43.582;19.528;2024-03-08T10:36:13;12.80;82.90
73360;DHT22;63092;43.582;19.528;2024-03-08T10:38:40;12.90;82.50
73360;DHT22;63092;43.582;19.528;2024-03-08T10:41:07;12.90;85.20
73360;DHT22;63092;43.582;19.528;2024-03-08T10:49:12;12.40;87.10
73360;DHT22;63092;43.582;19.528;2024-03-08T10:51:41;12.30;87.30
73360;DHT22;63092;43.582;19.528;2024-03-08T10:54:09;12.30;87.90
73360;DHT22;63092;43.582;19.528;2024-03-08T10:56:36;12.20;88.50
73360;DHT22;63092;43.582;19.528;2024-03-08T10:59:02;12.30;88.70
73360;DHT22;63092;43.582;19.528;2024-03-08T11:01:29;12.30;87.80
73360;DHT22;63092;43.582;19.528;2024-03-08T11:03:55;12.40;86.90
73360;DHT22;63092;43.582;19.528;2024-03-08T11:06:29;12.40;86.50
73360;DHT22;63092;43.582;19.528;2024-03-08T11:08:55;12.40;88.20
73360;DHT22;63092;43.582;19.528;2024-03-08T11:11:32;12.40;87.90
73360;DHT22;63092;43.582;19.528;2024-03-08T11:14:01;12.30;86.00
73360;DHT22;63092;43.582;19.528;2024-03-08T11:19:44;12.10;87.50
73360;DHT22;63092;43.582;19.528;2024-03-08T11:21:44;12.10;86.20
73360;DHT22;63092;43.582;19.528;2024-03-08T11:24:14;12.00;85.90
73360;DHT22;63092;43.582;19.528;2024-03-08T11:26:42;12.00;86.50
73360;DHT22;63092;43.582;19.528;2024-03-08T11:32:16;12.00;86.70
73360;DHT22;63092;43.582;19.528;2024-03-08T11:34:46;12.00;87.00
73360;DHT22;63092;43.582;19.528;2024-03-08T11:37:17;12.10;86.70
73360;DHT22;63092;43.582;19.528;2024-03-08T11:40:01;12.30;86.70
73360;DHT22;63092;43.582;19.528;2024-03-08T11:42:30;12.40;85.80
73360;DHT22;63092;43.582;19.528;2024-03-08T11:44:56;12.50;85.60
73360;DHT22;63092;43.582;19.528;2024-03-08T11:47:23;12.50;84.40
73360;DHT22;63092;43.582;19.528;2024-03-08T11:49:49;12.50;84.30
73360;DHT22;63092;43.582;19.528;2024-03-08T11:52:16;12.70;86.10
73360;DHT22;63092;43.582;19.528;2024-03-08T11:54:43;12.70;84.90
73360;DHT22;63092;43.582;19.528;2024-03-08T11:57:09;12.70;83.90
73360;DHT22;63092;43.582;19.528;2024-03-08T11:59:37;12.80;84.20
73360;DHT22;63092;43.582;19.528;2024-03-08T12:02:04;12.90;84.20
73360;DHT22;63092;43.582;19.528;2024-03-08T12:04:31;12.90;83.20
73360;DHT22;63092;43.582;19.528;2024-03-08T12:07:00;13.00;82.80
73360;DHT22;63092;43.582;19.528;2024-03-08T12:09:30;12.90;82.70
73360;DHT22;63092;43.582;19.528;2024-03-08T12:11:58;12.90;82.80
73360;DHT22;63092;43.582;19.528;2024-03-08T12:14:24;13.10;83.20
73360;DHT22;63092;43.582;19.528;2024-03-08T12:16:51;13.00;81.90
73360;DHT22;63092;43.582;19.528;2024-03-08T12:19:17;13.00;81.40
73360;DHT22;63092;43.582;19.528;2024-03-08T12:21:42;13.00;81.40
73360;DHT22;63092;43.582;19.528;2024-03-08T12:24:18;13.10;81.10
73360;DHT22;63092;43.582;19.528;2024-03-08T12:26:47;13.20;81.90
73360;DHT22;63092;43.582;19.528;2024-03-08T12:29:27;13.40;81.10
73360;DHT22;63092;43.582;19.528;2024-03-08T12:31:58;13.40;80.50
73360;DHT22;63092;43.582;19.528;2024-03-08T12:34:27;13.40;80.50
73360;DHT22;63092;43.582;19.528;2024-03-08T12:36:54;13.50;79.50
73360;DHT22;63092;43.582;19.528;2024-03-08T12:39:21;13.60;79.10
73360;DHT22;63092;43.582;19.528;2024-03-08T12:41:55;13.70;79.00
73360;DHT22;63092;43.582;19.528;2024-03-08T12:44:22;13.70;77.50
73360;DHT22;63092;43.582;19.528;2024-03-08T12:46:48;13.70;77.30
73360;DHT22;63092;43.582;19.528;2024-03-08T12:49:15;13.70;76.50
73360;DHT22;63092;43.582;19.528;2024-03-08T12:51:44;13.80;77.40
73360;DHT22;63092;43.582;19.528;2024-03-08T12:54:10;13.90;75.50
73360;DHT22;63092;43.582;19.528;2024-03-08T12:56:37;13.90;74.20
73360;DHT22;63092;43.582;19.528;2024-03-08T12:59:06;13.90;74.40
73360;DHT22;63092;43.582;19.528;2024-03-08T13:01:34;13.90;75.40
73360;DHT22;63092;43.582;19.528;2024-03-08T13:04:03;13.80;75.00
73360;DHT22;63092;43.582;19.528;2024-03-08T13:06:30;13.80;75.90
73360;DHT22;63092;43.582;19.528;2024-03-08T13:08:56;13.60;76.20
73360;DHT22;63092;43.582;19.528;2024-03-08T13:11:24;13.60;77.00
73360;DHT22;63092;43.582;19.528;2024-03-08T13:13:51;13.50;76.80
73360;DHT22;63092;43.582;19.528;2024-03-08T13:16:17;13.40;77.20
73360;DHT22;63092;43.582;19.528;2024-03-08T13:18:47;13.50;77.30
73360;DHT22;63092;43.582;19.528;2024-03-08T13:21:16;13.50;76.50
73360;DHT22;63092;43.582;19.528;2024-03-08T13:23:45;13.60;77.70
73360;DHT22;63092;43.582;19.528;2024-03-08T13:26:13;13.60;76.90
73360;DHT22;63092;43.582;19.528;2024-03-08T13:28:48;13.60;76.40
73360;DHT22;63092;43.582;19.528;2024-03-08T13:31:22;13.50;74.30
73360;DHT22;63092;43.582;19.528;2024-03-08T13:33:48;13.50;75.20
73360;DHT22;63092;43.582;19.528;2024-03-08T13:36:14;13.50;74.60
73360;DHT22;63092;43.582;19.528;2024-03-08T13:38:47;13.50;74.90
73360;DHT22;63092;43.582;19.528;2024-03-08T13:41:14;13.50;74.40
73360;DHT22;63092;43.582;19.528;2024-03-08T13:43:43;13.50;73.90
73360;DHT22;63092;43.582;19.528;2024-03-08T13:46:09;13.60;74.20
73360;DHT22;63092;43.582;19.528;2024-03-08T13:48:36;13.60;73.50
73360;DHT22;63092;43.582;19.528;2024-03-08T13:51:06;13.70;74.30
73360;DHT22;63092;43.582;19.528;2024-03-08T13:53:32;13.70;73.20
73360;DHT22;63092;43.582;19.528;2024-03-08T13:56:01;13.80;74.00
73360;DHT22;63092;43.582;19.528;2024-03-08T13:58:27;13.80;74.00
73360;DHT22;63092;43.582;19.528;2024-03-08T14:00:53;13.80;73.90
73360;DHT22;63092;43.582;19.528;2024-03-08T14:03:19;13.70;73.50
73360;DHT22;63092;43.582;19.528;2024-03-08T14:05:46;13.80;74.60
73360;DHT22;63092;43.582;19.528;2024-03-08T14:08:12;13.70;73.00
73360;DHT22;63092;43.582;19.528;2024-03-08T14:10:38;13.80;74.30
73360;DHT22;63092;43.582;19.528;2024-03-08T14:13:04;13.80;74.10
73360;DHT22;63092;43.582;19.528;2024-03-08T14:15:32;13.80;74.90
73360;DHT22;63092;43.582;19.528;2024-03-08T14:17:58;13.90;74.90
73360;DHT22;63092;43.582;19.528;2024-03-08T14:20:25;13.90;75.30
73360;DHT22;63092;43.582;19.528;2024-03-08T14:22:52;13.90;75.80
73360;DHT22;63092;43.582;19.528;2024-03-08T14:25:18;13.90;73.40
73360;DHT22;63092;43.582;19.528;2024-03-08T14:27:46;13.90;73.20
73360;DHT22;63092;43.582;19.528;2024-03-08T14:30:13;13.90;74.40
73360;DHT22;63092;43.582;19.528;2024-03-08T14:32:39;13.90;74.80
73360;DHT22;63092;43.582;19.528;2024-03-08T14:35:05;14.00;74.40
73360;DHT22;63092;43.582;19.528;2024-03-08T14:37:31;14.00;75.70
73360;DHT22;63092;43.582;19.528;2024-03-08T14:39:57;14.00;75.90
73360;DHT22;63092;43.582;19.528;2024-03-08T14:42:22;14.10;75.30
73360;DHT22;63092;43.582;19.528;2024-03-08T14:44:48;14.10;75.60
73360;DHT22;63092;43.582;19.528;2024-03-08T14:47:17;14.10;74.80
73360;DHT22;63092;43.582;19.528;2024-03-08T14:49:43;14.10;75.80
73360;DHT22;63092;43.582;19.528;2024-03-08T14:52:08;14.10;76.20
73360;DHT22;63092;43.582;19.528;2024-03-08T14:54:56;14.10;76.00
73360;DHT22;63092;43.582;19.528;2024-03-08T14:57:22;14.10;75.50
73360;DHT22;63092;43.582;19.528;2024-03-08T14:59:47;14.10;75.60
73360;DHT22;63092;43.582;19.528;2024-03-08T15:02:13;14.10;75.90
73360;DHT22;63092;43.582;19.528;2024-03-08T15:04:39;14.00;75.30
73360;DHT22;63092;43.582;19.528;2024-03-08T15:07:07;14.00;76.20
73360;DHT22;63092;43.582;19.528;2024-03-08T15:09:35;14.00;75.00
73360;DHT22;63092;43.582;19.528;2024-03-08T15:12:06;14.00;74.20
73360;DHT22;63092;43.582;19.528;2024-03-08T15:14:32;14.00;75.50
73360;DHT22;63092;43.582;19.528;2024-03-08T15:16:59;14.00;77.40
73360;DHT22;63092;43.582;19.528;2024-03-08T15:19:26;14.00;78.00
73360;DHT22;63092;43.582;19.528;2024-03-08T15:21:53;14.00;76.80
73360;DHT22;63092;43.582;19.528;2024-03-08T15:24:22;14.00;76.10
73360;DHT22;63092;43.582;19.528;2024-03-08T15:26:49;14.00;75.40
73360;DHT22;63092;43.582;19.528;2024-03-08T15:29:20;14.00;76.30
73360;DHT22;63092;43.582;19.528;2024-03-08T15:31:52;14.00;75.80
73360;DHT22;63092;43.582;19.528;2024-03-08T15:34:20;14.00;76.20
73360;DHT22;63092;43.582;19.528;2024-03-08T15:36:50;14.00;77.10